createdAt,value
2018-10-11T00:01:31.531Z,68.29
2018-10-11T00:04:00.893Z,68.42
2018-10-11T00:06:30.646Z,68.83
2018-10-11T00:09:00.060Z,68.93
2018-10-11T00:11:29.603Z,68.61
2018-10-11T00:13:58.982Z,69.18
2018-10-11T00:16:28.448Z,69.17
2018-10-11T00:18:57.837Z,69.29
2018-10-11T00:21:27.412Z,69.87
2018-10-11T00:23:57.112Z,69.88
2018-10-11T00:26:26.541Z,69.74
2018-10-11T00:28:56.012Z,69.69
2018-10-11T00:31:25.456Z,70.26
2018-10-11T00:33:54.957Z,70.65
2018-10-11T00:36:24.793Z,71.12
2018-10-11T00:38:55.028Z,71.29
2018-10-11T00:41:25.503Z,72.06
2018-10-11T00:43:54.872Z,72.11
2018-10-11T00:46:24.346Z,72.11
2018-10-11T00:48:53.727Z,72.41
2018-10-11T00:51:23.219Z,72.20
2018-10-11T00:53:52.708Z,71.69
2018-10-11T00:56:22.183Z,71.89
2018-10-11T00:58:51.615Z,72.10
2018-10-11T01:01:21.108Z,72.52
2018-10-11T01:03:50.443Z,72.24
2018-10-11T01:06:19.707Z,72.41
2018-10-11T01:08:49.197Z,73.23
2018-10-11T01:11:19.109Z,73.96
2018-10-11T01:13:48.546Z,75.05
2018-10-11T01:16:17.805Z,75.08
2018-10-11T01:18:47.161Z,75.55
2018-10-11T01:21:16.427Z,75.35
2018-10-11T01:23:45.786Z,75.16
2018-10-11T01:26:15.294Z,74.77
2018-10-11T01:28:44.863Z,74.73
2018-10-11T01:31:19.167Z,74.79
2018-10-11T01:33:50.823Z,74.47
2018-10-11T01:36:20.313Z,74.52
2018-10-11T01:38:51.143Z,74.94
2018-10-11T01:41:20.823Z,74.83
2018-10-11T01:43:50.241Z,75.44
2018-10-11T01:46:20.062Z,75.58
2018-10-11T01:48:49.817Z,75.70
2018-10-11T01:51:19.691Z,75.97
2018-10-11T01:53:49.481Z,75.79
2018-10-11T01:56:20.063Z,75.28
2018-10-11T01:58:49.680Z,75.92
2018-10-11T02:01:19.359Z,76.03
2018-10-11T02:03:48.879Z,76.33
2018-10-11T02:06:18.516Z,76.55
2018-10-11T02:08:48.086Z,75.92
2018-10-11T02:11:17.640Z,76.01
2018-10-11T02:13:47.272Z,75.92
2018-10-11T02:16:16.947Z,77.09
2018-10-11T02:18:46.463Z,77.60
2018-10-11T02:21:16.023Z,77.10
2018-10-11T02:23:45.636Z,76.99
2018-10-11T02:26:15.381Z,76.91
2018-10-11T02:28:44.989Z,76.95
2018-10-11T02:31:17.832Z,77.00
2018-10-11T02:33:47.451Z,76.90
2018-10-11T02:36:16.922Z,77.48
2018-10-11T02:38:46.731Z,77.64
2018-10-11T02:41:16.347Z,77.65
2018-10-11T02:43:45.995Z,78.12
2018-10-11T02:46:16.647Z,78.64
2018-10-11T02:48:46.774Z,78.79
2018-10-11T02:51:16.548Z,78.76
2018-10-11T02:53:46.307Z,79.41
2018-10-11T02:56:16.051Z,80.12
2018-10-11T02:58:56.355Z,81.09
2018-10-11T03:01:26.028Z,80.24
2018-10-11T03:04:01.246Z,80.86
2018-10-11T03:06:31.194Z,80.32
2018-10-11T03:09:01.494Z,80.82
2018-10-11T03:11:31.223Z,80.50
2018-10-11T03:14:00.747Z,80.37
2018-10-11T03:16:30.402Z,80.68
2018-10-11T03:18:59.999Z,80.96
2018-10-11T03:21:29.736Z,80.86
2018-10-11T03:23:59.893Z,80.96
2018-10-11T03:26:29.822Z,81.07
2018-10-11T03:28:59.533Z,81.00
2018-10-11T03:31:29.719Z,80.79
2018-10-11T03:33:59.343Z,80.77
2018-10-11T03:36:29.095Z,80.51
2018-10-11T03:38:59.628Z,80.48
2018-10-11T03:41:29.252Z,80.19
2018-10-11T03:43:59.371Z,79.99
2018-10-11T03:46:29.082Z,80.03
2018-10-11T03:48:58.639Z,79.93
2018-10-11T03:51:28.254Z,79.86
2018-10-11T03:53:57.984Z,80.11
2018-10-11T03:56:27.730Z,79.97
2018-10-11T03:58:58.022Z,79.91
2018-10-11T04:01:27.822Z,79.84
2018-10-11T04:03:58.044Z,79.84
2018-10-11T04:06:27.803Z,80.47
2018-10-11T04:08:57.385Z,80.46
2018-10-11T04:11:27.043Z,80.53
2018-10-11T04:13:57.201Z,80.43
2018-10-11T04:16:27.399Z,79.69
2018-10-11T04:18:57.168Z,79.24
2018-10-11T04:21:26.655Z,78.68
2018-10-11T04:23:56.295Z,78.90
2018-10-11T04:26:25.837Z,79.02
2018-10-11T04:28:56.249Z,78.79
2018-10-11T04:31:26.403Z,79.36
2018-10-11T04:33:55.995Z,79.88
2018-10-11T04:36:25.598Z,79.91
2018-10-11T04:38:55.212Z,79.80
2018-10-11T04:41:25.075Z,79.93
2018-10-11T04:43:54.931Z,80.42
2018-10-11T04:46:24.481Z,81.11
2018-10-11T04:48:54.085Z,82.04
2018-10-11T04:51:23.754Z,81.80
2018-10-11T04:53:57.128Z,81.08
2018-10-11T04:56:28.245Z,81.62
2018-10-11T04:58:58.611Z,81.56
2018-10-11T05:01:28.713Z,82.49
2018-10-11T05:03:58.519Z,81.88
2018-10-11T05:06:27.965Z,79.69
2018-10-11T05:08:57.446Z,77.30
2018-10-11T05:11:31.116Z,74.89
2018-10-11T05:14:00.873Z,72.77
2018-10-11T05:16:30.434Z,70.30
2018-10-11T05:19:04.198Z,68.35
2018-10-11T05:21:34.121Z,65.71
2018-10-11T05:24:05.213Z,64.19
2018-10-11T05:26:34.987Z,64.22
2018-10-11T05:29:05.143Z,62.66
2018-10-11T05:31:34.862Z,61.39
2018-10-11T05:34:04.431Z,60.42
2018-10-11T05:36:34.013Z,59.67
2018-10-11T05:39:04.225Z,59.22
2018-10-11T05:41:33.933Z,58.64
2018-10-11T05:44:03.590Z,54.88
2018-10-11T05:46:34.597Z,52.62
2018-10-11T05:49:05.783Z,52.86
2018-10-11T05:51:36.071Z,52.93
2018-10-11T05:54:06.701Z,51.70
2018-10-11T05:56:39.639Z,51.85
2018-10-11T05:59:09.934Z,50.95
2018-10-11T06:01:39.713Z,50.20
2018-10-11T06:04:10.357Z,49.32
2018-10-11T06:06:40.054Z,48.23
2018-10-11T06:09:11.062Z,48.59
2018-10-11T06:11:40.790Z,46.17
2018-10-11T06:14:10.783Z,44.79
2018-10-11T06:16:40.533Z,45.29
2018-10-11T06:19:10.286Z,43.80
2018-10-11T06:21:40.680Z,42.83
2018-10-11T06:24:10.146Z,43.79
2018-10-11T06:26:39.981Z,44.29
2018-10-11T06:29:09.693Z,44.65
2018-10-11T06:31:39.617Z,43.89
2018-10-11T06:34:09.093Z,43.13
2018-10-11T06:36:41.192Z,42.89
2018-10-11T06:39:11.697Z,40.83
2018-10-11T06:41:41.253Z,39.63
2018-10-11T06:44:12.934Z,38.93
2018-10-11T06:46:42.758Z,40.13
2018-10-11T06:49:12.595Z,38.56
2018-10-11T06:51:42.284Z,38.07
2018-10-11T06:54:12.133Z,37.93
2018-10-11T06:56:41.502Z,38.09
2018-10-11T06:59:11.327Z,37.73
2018-10-11T07:01:41.010Z,37.39
2018-10-11T07:04:10.919Z,35.71
2018-10-11T07:06:40.792Z,35.58
2018-10-11T07:09:10.531Z,36.37
2018-10-11T07:11:40.132Z,36.24
2018-10-11T07:14:09.880Z,35.36
2018-10-11T07:16:39.676Z,35.86
2018-10-11T07:19:10.176Z,34.82
2018-10-11T07:21:39.816Z,34.99
2018-10-11T07:24:09.335Z,36.12
2018-10-11T07:26:39.904Z,33.93
2018-10-11T07:29:09.605Z,32.76
2018-10-11T07:31:39.217Z,34.04
2018-10-11T07:34:09.453Z,33.43
2018-10-11T07:36:41.089Z,33.51
2018-10-11T07:39:12.731Z,32.69
2018-10-11T07:41:42.589Z,33.15
2018-10-11T07:44:12.359Z,33.77
2018-10-11T07:46:41.956Z,32.21
2018-10-11T07:51:39.971Z,32.55
2018-10-11T07:54:09.430Z,31.36
2018-10-11T07:56:38.976Z,32.41
2018-10-11T07:59:09.000Z,31.08
2018-10-11T08:01:38.653Z,29.83
2018-10-11T08:04:08.291Z,29.29
2018-10-11T08:06:37.970Z,30.16
2018-10-11T08:09:08.720Z,29.55
2018-10-11T08:11:38.567Z,29.07
2018-10-11T08:14:08.040Z,28.31
2018-10-11T08:16:37.627Z,29.47
2018-10-11T08:19:07.600Z,27.27
2018-10-11T08:21:37.276Z,28.05
2018-10-11T08:24:07.234Z,27.11
2018-10-11T08:26:36.934Z,26.44
2018-10-11T08:29:07.115Z,25.79
2018-10-11T08:31:36.796Z,26.70
2018-10-11T08:34:06.288Z,25.58
2018-10-11T08:36:35.879Z,26.13
2018-10-11T08:39:08.043Z,24.70
2018-10-11T08:41:38.374Z,24.98
2018-10-11T08:44:08.181Z,24.24
2018-10-11T08:46:38.707Z,24.77
2018-10-11T08:49:08.257Z,24.50
2018-10-11T08:51:38.037Z,24.91
2018-10-11T08:54:12.587Z,25.39
2018-10-11T08:56:42.222Z,24.40
2018-10-11T08:59:12.803Z,24.19
2018-10-11T09:01:42.473Z,25.27
2018-10-11T09:04:12.334Z,24.06
2018-10-11T09:06:41.946Z,24.33
2018-10-11T09:09:11.803Z,24.31
2018-10-11T09:11:41.673Z,24.33
2018-10-11T09:14:11.225Z,24.70
2018-10-11T09:16:40.924Z,24.18
2018-10-11T09:19:10.521Z,23.77
2018-10-11T09:21:40.135Z,24.57
2018-10-11T09:24:09.842Z,23.98
2018-10-11T09:26:39.521Z,23.83
2018-10-11T09:29:09.067Z,25.16
2018-10-11T09:31:38.674Z,24.90
2018-10-11T09:34:09.153Z,23.15
2018-10-11T09:36:38.975Z,24.65
2018-10-11T09:39:09.745Z,24.07
2018-10-11T09:41:39.844Z,23.42
2018-10-11T09:44:09.947Z,23.90
2018-10-11T09:46:39.545Z,23.50
2018-10-11T09:49:09.107Z,23.61
2018-10-11T09:51:38.760Z,22.26
2018-10-11T09:54:08.343Z,23.12
2018-10-11T09:57:41.865Z,23.12
2018-10-11T10:00:17.026Z,23.59
2018-10-11T10:02:47.723Z,23.73
2018-10-11T10:05:17.495Z,23.09
2018-10-11T10:07:47.141Z,23.14
2018-10-11T10:10:16.857Z,23.57
2018-10-11T10:12:46.573Z,22.80
2018-10-11T10:15:16.660Z,22.44
2018-10-11T10:17:46.207Z,24.05
2018-10-11T10:20:15.917Z,22.68
2018-10-11T10:22:45.502Z,23.31
2018-10-11T10:25:15.985Z,24.03
2018-10-11T10:27:45.576Z,22.51
2018-10-11T10:30:20.099Z,22.83
2018-10-11T10:32:49.919Z,22.55
2018-10-11T10:35:19.385Z,22.60
2018-10-11T10:37:49.032Z,22.26
2018-10-11T10:40:18.934Z,21.97
2018-10-11T10:42:48.704Z,22.46
2018-10-11T10:45:18.290Z,21.39
2018-10-11T10:47:47.959Z,22.37
2018-10-11T10:50:17.575Z,23.21
2018-10-11T10:52:47.234Z,23.71
2018-10-11T10:55:16.830Z,23.43
2018-10-11T10:57:46.497Z,22.58
2018-10-11T11:00:16.340Z,22.44
2018-10-11T11:02:45.764Z,22.80
2018-10-11T11:05:15.414Z,23.33
2018-10-11T11:07:45.103Z,23.19
2018-10-11T11:10:14.728Z,24.42
2018-10-11T11:12:44.359Z,23.93
2018-10-11T11:15:13.910Z,22.44
2018-10-11T11:17:43.527Z,22.70
2018-10-11T11:20:13.221Z,22.71
2018-10-11T11:22:42.812Z,23.45
2018-10-11T11:25:12.433Z,21.98
2018-10-11T11:27:42.101Z,21.88
2018-10-11T11:30:11.738Z,23.12
2018-10-11T11:32:42.331Z,23.40
2018-10-11T11:35:11.974Z,23.05
2018-10-11T11:37:41.640Z,22.76
2018-10-11T11:40:11.404Z,22.74
2018-10-11T11:42:40.987Z,23.12
2018-10-11T11:45:10.623Z,21.44
2018-10-11T11:47:40.220Z,22.77
2018-10-11T11:50:09.988Z,21.40
2018-10-11T11:52:39.579Z,20.85
2018-10-11T11:55:09.090Z,20.14
2018-10-11T11:57:38.718Z,21.00
2018-10-11T12:00:08.557Z,21.84
2018-10-11T12:02:38.177Z,23.17
2018-10-11T12:05:08.672Z,23.94
2018-10-11T12:07:38.141Z,24.52
2018-10-11T12:10:07.866Z,26.44
2018-10-11T12:13:14.424Z,26.72
2018-10-11T12:15:44.709Z,27.42
2018-10-11T12:18:14.399Z,28.34
2018-10-11T12:20:44.038Z,28.64
2018-10-11T12:23:14.096Z,28.46
2018-10-11T12:25:43.823Z,29.18
2018-10-11T12:28:13.389Z,29.04
2018-10-11T12:30:42.933Z,29.08
2018-10-11T12:33:12.679Z,29.24
2018-10-11T12:35:42.244Z,29.10
2018-10-11T12:38:11.890Z,29.65
2018-10-11T12:40:41.415Z,29.20
2018-10-11T12:43:11.107Z,29.38
2018-10-11T12:45:41.560Z,28.89
2018-10-11T12:48:11.191Z,28.77
2018-10-11T12:50:40.818Z,29.27
2018-10-11T12:53:10.471Z,29.00
2018-10-11T12:55:40.090Z,28.90
2018-10-11T12:58:09.799Z,28.75
2018-10-11T13:00:39.365Z,28.36
2018-10-11T13:03:09.976Z,28.74
2018-10-11T13:05:39.526Z,28.37
2018-10-11T13:08:09.283Z,28.85
2018-10-11T13:10:38.895Z,28.42
2018-10-11T13:13:11.621Z,28.58
2018-10-11T13:15:38.490Z,28.57
2018-10-11T13:18:08.102Z,27.77
2018-10-11T13:20:38.702Z,27.87
2018-10-11T13:23:12.289Z,28.16
2018-10-11T13:25:37.991Z,28.48
2018-10-11T13:28:07.496Z,27.83
2018-10-11T13:30:37.106Z,28.58
2018-10-11T13:33:06.845Z,27.57
2018-10-11T13:35:36.489Z,28.11
2018-10-11T13:38:06.185Z,27.81
2018-10-11T13:40:35.800Z,28.32
2018-10-11T13:43:05.330Z,28.19
2018-10-11T13:45:34.940Z,28.03
2018-10-11T13:48:04.576Z,28.47
2018-10-11T13:50:34.221Z,28.53
2018-10-11T13:53:04.281Z,28.11
2018-10-11T13:55:33.924Z,28.37
2018-10-11T13:58:03.595Z,28.35
2018-10-11T14:00:34.017Z,28.54
2018-10-11T14:03:03.975Z,28.12
2018-10-11T14:05:33.597Z,28.53
2018-10-11T14:08:03.181Z,28.56
2018-10-11T14:10:32.646Z,28.47
2018-10-11T14:13:02.369Z,28.38
2018-10-11T14:15:31.977Z,28.45
2018-10-11T14:18:06.213Z,29.23
2018-10-11T14:20:31.937Z,28.99
2018-10-11T14:23:01.415Z,28.75
2018-10-11T14:25:30.973Z,28.77
2018-10-11T14:28:00.978Z,28.52
2018-10-11T14:30:30.527Z,28.92
2018-10-11T14:33:00.100Z,29.08
2018-10-11T14:35:30.232Z,29.19
2018-10-11T14:37:59.877Z,28.87
2018-10-11T14:40:29.396Z,29.08
2018-10-11T14:42:59.114Z,29.29
2018-10-11T14:45:28.592Z,28.80
2018-10-11T14:47:58.292Z,29.20
2018-10-11T14:50:28.140Z,29.55
2018-10-11T14:52:57.739Z,29.55
2018-10-11T14:55:27.216Z,29.15
2018-10-11T14:57:56.812Z,29.93
2018-10-11T15:00:26.512Z,30.09
2018-10-11T15:02:56.406Z,29.23
2018-10-11T15:05:26.032Z,29.21
2018-10-11T15:07:55.660Z,30.05
2018-10-11T15:10:25.342Z,29.16
2018-10-11T15:12:54.909Z,29.09
2018-10-11T15:15:24.976Z,29.67
2018-10-11T15:17:54.630Z,29.74
2018-10-11T15:20:24.413Z,32.06
2018-10-11T15:22:53.903Z,33.10
2018-10-11T15:25:23.612Z,33.55
2018-10-11T15:27:54.111Z,33.87
2018-10-11T15:30:23.718Z,34.12
2018-10-11T15:32:53.274Z,34.91
2018-10-11T15:35:22.981Z,35.55
2018-10-11T15:37:53.429Z,35.76
2018-10-11T15:40:23.054Z,36.32
2018-10-11T15:42:52.719Z,37.03
2018-10-11T15:45:23.710Z,36.90
2018-10-11T15:47:53.594Z,36.76
2018-10-11T15:50:23.165Z,36.92
2018-10-11T15:52:52.808Z,37.11
2018-10-11T15:55:22.498Z,36.56
2018-10-11T15:57:52.152Z,36.99
2018-10-11T16:00:21.837Z,36.86
2018-10-11T16:02:51.572Z,38.70
2018-10-11T16:05:21.599Z,37.83
2018-10-11T16:07:51.307Z,38.10
2018-10-11T16:10:21.740Z,39.29
2018-10-11T16:12:51.378Z,40.43
2018-10-11T16:15:21.109Z,40.08
2018-10-11T16:17:50.922Z,41.07
2018-10-11T16:20:20.552Z,40.88
2018-10-11T16:22:50.253Z,41.50
2018-10-11T16:25:19.941Z,41.43
2018-10-11T16:27:49.490Z,41.23
2018-10-11T16:30:19.275Z,41.53
2018-10-11T16:32:48.874Z,42.00
2018-10-11T16:35:18.624Z,42.71
2018-10-11T16:37:48.260Z,42.75
2018-10-11T16:40:18.017Z,43.75
2018-10-11T16:42:47.635Z,44.72
2018-10-11T16:45:17.239Z,43.99
2018-10-11T16:47:46.763Z,44.47
2018-10-11T16:50:16.416Z,43.36
2018-10-11T16:52:46.243Z,42.75
2018-10-11T16:55:15.858Z,42.11
2018-10-11T16:57:45.561Z,42.04
2018-10-11T17:00:15.288Z,41.89
2018-10-11T17:02:45.010Z,43.51
2018-10-11T17:05:14.649Z,44.03
2018-10-11T17:07:44.333Z,44.62
2018-10-11T17:10:13.988Z,44.61
2018-10-11T17:12:43.614Z,45.62
2018-10-11T17:15:13.193Z,45.31
2018-10-11T17:17:42.787Z,45.44
2018-10-11T17:20:12.422Z,45.15
2018-10-11T17:22:42.078Z,45.20
2018-10-11T17:25:11.694Z,44.40
2018-10-11T17:27:41.401Z,45.05
2018-10-11T17:30:11.097Z,44.49
2018-10-11T17:32:40.848Z,45.43
2018-10-11T17:35:10.574Z,45.87
2018-10-11T17:37:40.260Z,47.34
2018-10-11T17:40:09.891Z,47.00
2018-10-11T17:42:44.174Z,47.35
2018-10-11T17:45:13.747Z,47.65
2018-10-11T17:47:43.471Z,48.39
2018-10-11T17:50:13.117Z,48.68
2018-10-11T17:52:42.722Z,49.05
2018-10-11T17:55:12.373Z,49.27
2018-10-11T17:57:41.940Z,50.15
2018-10-11T18:00:12.212Z,50.67
2018-10-11T18:02:41.974Z,50.65
2018-10-11T18:05:11.477Z,51.49
2018-10-11T18:07:41.132Z,51.20
2018-10-11T18:10:10.830Z,51.89
2018-10-11T18:12:40.431Z,52.19
2018-10-11T18:15:10.169Z,52.45
2018-10-11T18:17:39.624Z,51.94
2018-10-11T18:20:09.297Z,51.94
2018-10-11T18:22:38.962Z,52.14
2018-10-11T18:25:08.851Z,52.84
2018-10-11T18:27:38.400Z,53.57
2018-10-11T18:30:10.513Z,54.47
2018-10-11T18:32:40.363Z,55.25
2018-10-11T18:35:10.984Z,55.34
2018-10-11T18:37:40.630Z,55.56
2018-10-11T18:40:10.381Z,55.18
2018-10-11T18:42:40.146Z,55.45
2018-10-11T18:45:09.743Z,55.77
2018-10-11T18:47:39.408Z,55.55
2018-10-11T18:50:09.532Z,54.46
2018-10-11T18:52:39.141Z,53.68
2018-10-11T18:55:08.694Z,52.87
2018-10-11T18:57:38.480Z,52.82
2018-10-11T19:00:08.312Z,52.33
2018-10-11T19:02:37.827Z,52.95
2018-10-11T19:05:07.593Z,53.01
2018-10-11T19:07:37.220Z,53.26
2018-10-11T19:10:06.801Z,53.50
2018-10-11T19:12:36.454Z,53.29
2018-10-11T19:15:06.196Z,53.44
2018-10-11T19:17:36.084Z,53.49
2018-10-11T19:20:05.835Z,54.13
2018-10-11T19:22:35.512Z,54.39
2018-10-11T19:25:05.240Z,56.13
2018-10-11T19:27:34.905Z,56.98
2018-10-11T19:30:05.610Z,57.44
2018-10-11T19:32:35.499Z,57.55
2018-10-11T19:35:05.364Z,58.27
2018-10-11T19:37:35.097Z,58.95
2018-10-11T19:40:04.731Z,59.09
2018-10-11T19:42:34.407Z,59.10
2018-10-11T19:45:04.050Z,59.33
2018-10-11T19:47:33.734Z,59.29
2018-10-11T19:50:03.304Z,59.32
2018-10-11T19:52:32.966Z,58.97
2018-10-11T19:55:02.631Z,58.14
2018-10-11T19:57:32.247Z,57.19
2018-10-11T20:00:01.957Z,56.33
2018-10-11T20:02:31.654Z,56.38
2018-10-11T20:05:01.282Z,57.06
2018-10-11T20:07:30.758Z,58.19
2018-10-11T20:10:00.349Z,58.88
2018-10-11T20:12:29.973Z,58.90
2018-10-11T20:14:59.673Z,58.83
2018-10-11T20:17:29.327Z,60.07
2018-10-11T20:19:58.987Z,60.00
2018-10-11T20:22:28.616Z,59.93
2018-10-11T20:24:58.244Z,59.92
2018-10-11T20:27:27.810Z,60.24
2018-10-11T20:29:57.434Z,60.27
2018-10-11T20:32:27.166Z,60.57
2018-10-11T20:34:56.865Z,61.97
2018-10-11T20:37:26.394Z,62.14
2018-10-11T20:39:56.106Z,62.20
2018-10-11T20:42:25.669Z,62.47
2018-10-11T20:44:55.278Z,62.61
2018-10-11T20:47:24.829Z,62.18
2018-10-11T20:49:54.468Z,61.84
2018-10-11T20:52:24.106Z,63.49
2018-10-11T20:54:53.953Z,62.94
2018-10-11T20:57:23.557Z,63.17
2018-10-11T20:59:53.221Z,63.90
2018-10-11T21:02:22.882Z,63.24
2018-10-11T21:04:53.232Z,63.20
2018-10-11T21:07:22.915Z,63.88
2018-10-11T21:09:53.869Z,63.68
2018-10-11T21:12:23.643Z,63.66
2018-10-11T21:14:53.589Z,63.53
2018-10-11T21:17:23.659Z,63.64
2018-10-11T21:19:53.257Z,63.50
2018-10-11T21:22:24.091Z,63.66
2018-10-11T21:24:54.172Z,63.76
2018-10-11T21:27:24.182Z,63.82
2018-10-11T21:29:54.009Z,64.18
2018-10-11T21:32:23.902Z,64.31
2018-10-11T21:34:53.456Z,64.41
2018-10-11T21:37:23.023Z,64.50
2018-10-11T21:39:53.084Z,65.38
2018-10-11T21:42:22.785Z,66.58
2018-10-11T21:44:52.380Z,66.12
2018-10-11T21:47:22.016Z,66.56
2018-10-11T21:49:51.511Z,67.08
2018-10-11T21:52:21.060Z,67.29
2018-10-11T21:54:50.687Z,67.43
2018-10-11T21:57:22.432Z,66.85
2018-10-11T21:59:52.096Z,66.62
2018-10-11T22:02:22.581Z,66.74
2018-10-11T22:04:52.305Z,66.82
2018-10-11T22:07:21.910Z,66.18
2018-10-11T22:09:51.502Z,66.82
2018-10-11T22:12:20.966Z,66.82
2018-10-11T22:14:50.842Z,66.55
2018-10-11T22:17:20.331Z,65.80
2018-10-11T22:19:49.976Z,66.73
2018-10-11T22:22:19.526Z,66.35
2018-10-11T22:24:49.192Z,66.32
2018-10-11T22:27:18.690Z,65.61
2018-10-11T22:29:48.248Z,65.06
2018-10-11T22:32:17.747Z,65.14
2018-10-11T22:34:47.244Z,65.28
2018-10-11T22:37:16.886Z,65.43
2018-10-11T22:39:46.484Z,65.64
2018-10-11T22:42:16.127Z,66.27
2018-10-11T22:44:45.972Z,65.73
2018-10-11T22:47:15.766Z,66.88
2018-10-11T22:49:45.387Z,67.66
2018-10-11T22:52:15.823Z,66.95
2018-10-11T22:54:45.364Z,66.71
2018-10-11T22:57:15.020Z,67.42
2018-10-11T22:59:44.601Z,67.84
2018-10-11T23:02:14.235Z,68.54
2018-10-11T23:04:44.112Z,68.62
2018-10-11T23:07:13.854Z,68.99
2018-10-11T23:09:43.577Z,69.32
2018-10-11T23:12:13.174Z,69.21
2018-10-11T23:14:42.985Z,69.89
2018-10-11T23:17:12.592Z,70.48
2018-10-11T23:19:42.216Z,69.65
2018-10-11T23:22:11.888Z,68.91
2018-10-11T23:24:41.601Z,68.94
2018-10-11T23:27:11.197Z,69.04
2018-10-11T23:29:40.893Z,69.26
2018-10-11T23:32:10.459Z,69.23
2018-10-11T23:34:40.142Z,69.23
2018-10-11T23:37:10.061Z,69.61
2018-10-11T23:39:39.705Z,70.16
2018-10-11T23:42:09.427Z,71.31
2018-10-11T23:44:39.172Z,70.50
2018-10-11T23:48:11.834Z,71.09
2018-10-11T23:50:41.405Z,71.50
2018-10-11T23:53:11.160Z,71.05
2018-10-11T23:55:40.768Z,71.12
2018-10-11T23:58:10.299Z,71.39
